createdAt,value
2022-12-17T00:00:23.202Z,37.22
2022-12-17T00:06:19.668Z,35.67
2022-12-17T00:09:05.467Z,37.28
2022-12-17T00:11:51.422Z,40.10
2022-12-17T00:14:38.037Z,39.67
2022-12-17T00:17:23.724Z,35.90
2022-12-17T00:20:09.832Z,34.03
2022-12-17T00:22:55.448Z,41.03
2022-12-17T00:25:44.510Z,35.95
2022-12-17T00:28:32.338Z,38.17
2022-12-17T00:31:18.465Z,36.90
2022-12-17T00:34:05.077Z,32.28
2022-12-17T00:36:51.504Z,34.13
2022-12-17T00:39:37.436Z,37.15
2022-12-17T00:42:23.315Z,34.72
2022-12-17T00:45:09.108Z,36.90
2022-12-17T00:47:55.925Z,36.78
2022-12-17T00:50:42.311Z,33.83
2022-12-17T00:53:29.099Z,33.22
2022-12-17T00:56:14.647Z,30.38
2022-12-17T00:59:00.597Z,32.25
2022-12-17T01:01:46.168Z,33.97
2022-12-17T01:04:32.568Z,36.33
2022-12-17T01:07:18.098Z,34.63
2022-12-17T01:10:04.088Z,35.72
2022-12-17T01:18:15.592Z,38.95
2022-12-17T01:21:02.214Z,34.35
2022-12-17T01:23:47.969Z,30.88
2022-12-17T01:26:33.986Z,33.47
2022-12-17T01:29:19.705Z,32.53
2022-12-17T01:32:05.512Z,35.65
2022-12-17T01:35:11.179Z,29.52
2022-12-17T01:37:57.035Z,33.40
2022-12-17T01:40:42.669Z,31.70
2022-12-17T01:43:32.797Z,33.55
2022-12-17T01:46:18.925Z,33.97
2022-12-17T01:49:06.385Z,33.35
2022-12-17T01:51:54.374Z,34.05
2022-12-17T01:54:41.576Z,39.47
2022-12-17T01:57:28.419Z,36.08
2022-12-17T02:00:30.855Z,34.13
2022-12-17T02:03:18.540Z,33.83
2022-12-17T02:06:30.207Z,34.42
2022-12-17T02:10:00.992Z,34.85
2022-12-17T02:12:56.945Z,35.13
2022-12-17T02:16:05.965Z,31.77
2022-12-17T02:19:03.452Z,35.00
2022-12-17T02:21:54.026Z,28.08
2022-12-17T02:25:03.263Z,31.77
2022-12-17T02:27:53.621Z,31.95
2022-12-17T02:30:39.674Z,27.45
2022-12-17T02:33:26.908Z,33.40
2022-12-17T02:36:23.441Z,29.95
2022-12-17T02:39:09.749Z,33.90
2022-12-17T02:42:11.902Z,30.85
2022-12-17T02:45:01.253Z,26.13
2022-12-17T02:47:48.051Z,27.23
2022-12-17T02:50:34.255Z,27.83
2022-12-17T02:53:22.543Z,24.90
2022-12-17T02:56:08.188Z,25.67
2022-12-17T02:58:56.739Z,25.85
2022-12-17T03:01:42.682Z,21.83
2022-12-17T03:04:28.612Z,22.33
2022-12-17T03:07:14.800Z,24.35
2022-12-17T03:10:01.733Z,24.40
2022-12-17T03:12:49.909Z,24.70
2022-12-17T03:15:35.916Z,25.25
2022-12-17T03:18:21.371Z,27.02
2022-12-17T03:21:12.591Z,25.15
2022-12-17T03:23:58.422Z,21.90
2022-12-17T03:26:44.420Z,23.58
2022-12-17T03:29:30.388Z,24.33
2022-12-17T03:32:16.601Z,23.42
2022-12-17T03:35:02.476Z,27.27
2022-12-17T03:37:48.513Z,23.25
2022-12-17T03:40:34.227Z,24.83
2022-12-17T03:43:30.909Z,28.25
2022-12-17T03:46:16.488Z,21.83
2022-12-17T03:49:03.055Z,25.67
2022-12-17T03:51:49.260Z,26.00
2022-12-17T03:54:35.216Z,26.92
2022-12-17T03:57:20.867Z,27.70
2022-12-17T04:00:06.556Z,22.88
2022-12-17T04:02:58.571Z,24.40
2022-12-17T04:05:45.030Z,20.95
2022-12-17T04:08:30.520Z,24.05
2022-12-17T04:11:16.199Z,24.15
2022-12-17T04:14:01.711Z,25.40
2022-12-17T04:16:47.932Z,20.60
2022-12-17T04:19:33.642Z,24.60
2022-12-17T04:22:19.636Z,22.38
2022-12-17T04:25:05.302Z,22.92
2022-12-17T04:27:51.362Z,25.45
2022-12-17T04:30:38.287Z,24.17
2022-12-17T04:33:24.324Z,24.58
2022-12-17T04:36:10.199Z,23.13
2022-12-17T04:38:56.197Z,22.67
2022-12-17T04:41:41.900Z,25.05
2022-12-17T04:44:27.809Z,24.40
2022-12-17T04:47:13.656Z,22.85
2022-12-17T04:49:59.528Z,21.60
2022-12-17T04:52:45.703Z,20.48
2022-12-17T04:55:31.524Z,22.10
2022-12-17T04:58:25.481Z,22.25
2022-12-17T05:01:13.473Z,22.50
2022-12-17T05:03:59.374Z,19.17
2022-12-17T05:06:45.291Z,18.65
2022-12-17T05:09:30.956Z,23.17
2022-12-17T05:12:17.060Z,17.30
2022-12-17T05:15:02.432Z,20.30
2022-12-17T05:17:48.633Z,22.58
2022-12-17T05:20:37.701Z,20.85
2022-12-17T05:23:28.049Z,20.55
2022-12-17T05:26:39.283Z,21.42
2022-12-17T05:29:26.843Z,21.15
2022-12-17T05:32:12.589Z,24.08
2022-12-17T05:34:58.389Z,23.33
2022-12-17T05:37:44.619Z,23.30
2022-12-17T05:40:30.866Z,24.85
2022-12-17T05:43:20.824Z,20.25
2022-12-17T05:46:08.155Z,22.42
2022-12-17T05:48:54.885Z,20.55
2022-12-17T05:51:41.421Z,22.38
2022-12-17T05:54:27.629Z,23.33
2022-12-17T05:57:13.928Z,18.50
2022-12-17T05:59:59.787Z,21.40
2022-12-17T06:02:45.828Z,19.60
2022-12-17T06:05:32.765Z,17.73
2022-12-17T06:08:25.095Z,23.15
2022-12-17T06:11:11.760Z,18.25
2022-12-17T06:14:02.161Z,19.45
2022-12-17T06:16:47.806Z,22.13
2022-12-17T06:19:33.958Z,20.50
2022-12-17T06:22:19.828Z,20.95
2022-12-17T06:25:22.416Z,20.25
2022-12-17T06:28:08.444Z,20.77
2022-12-17T06:30:54.499Z,18.50
2022-12-17T06:33:40.278Z,19.10
2022-12-17T06:36:26.826Z,19.50
2022-12-17T06:39:12.668Z,21.13
2022-12-17T06:42:04.177Z,18.73
2022-12-17T06:44:50.811Z,17.80
2022-12-17T06:47:38.129Z,18.80
2022-12-17T06:50:24.191Z,21.70
2022-12-17T06:53:30.530Z,17.83
2022-12-17T06:56:17.884Z,19.23
2022-12-17T06:59:04.791Z,22.73
2022-12-17T07:01:50.693Z,23.90
2022-12-17T07:04:36.901Z,23.30
2022-12-17T07:07:22.534Z,22.35
2022-12-17T07:10:13.858Z,21.50
2022-12-17T07:12:59.833Z,23.27
2022-12-17T07:15:46.053Z,21.35
2022-12-17T07:18:31.869Z,20.95
2022-12-17T07:21:17.614Z,22.33
2022-12-17T07:24:03.512Z,21.73
2022-12-17T07:26:49.958Z,23.92
2022-12-17T07:29:35.579Z,23.45
2022-12-17T07:32:21.833Z,20.38
2022-12-17T07:35:07.495Z,21.77
2022-12-17T07:37:53.619Z,24.40
2022-12-17T07:40:39.363Z,21.25
2022-12-17T07:43:31.066Z,23.20
2022-12-17T07:46:16.944Z,21.40
2022-12-17T07:49:03.396Z,21.10
2022-12-17T07:51:49.103Z,21.90
2022-12-17T07:54:35.231Z,26.15
2022-12-17T07:57:21.197Z,21.92
2022-12-17T08:00:06.960Z,22.98
2022-12-17T08:02:53.026Z,22.73
2022-12-17T08:05:39.234Z,22.23
2022-12-17T08:08:29.953Z,23.88
2022-12-17T08:11:23.740Z,22.10
2022-12-17T08:14:09.432Z,23.40
2022-12-17T08:16:55.547Z,22.88
2022-12-17T08:19:41.454Z,25.17
2022-12-17T08:22:27.892Z,25.35
2022-12-17T08:25:13.608Z,23.17
2022-12-17T08:27:59.376Z,23.27
2022-12-17T08:30:45.295Z,25.25
2022-12-17T08:33:31.121Z,21.10
2022-12-17T08:36:17.372Z,22.63
2022-12-17T08:39:04.629Z,26.98
2022-12-17T08:41:54.467Z,22.15
2022-12-17T08:44:42.012Z,23.58
2022-12-17T08:47:27.801Z,21.73
2022-12-17T08:50:13.668Z,23.83
2022-12-17T08:52:59.569Z,20.08
2022-12-17T08:55:45.841Z,22.05
2022-12-17T08:58:31.712Z,25.10
2022-12-17T09:01:18.997Z,18.63
2022-12-17T09:04:06.319Z,23.77
2022-12-17T09:06:52.128Z,24.60
2022-12-17T09:09:41.896Z,19.20
2022-12-17T09:12:27.933Z,22.17
2022-12-17T09:15:13.420Z,22.55
2022-12-17T09:17:59.176Z,20.17
2022-12-17T09:20:44.813Z,23.10
2022-12-17T09:23:35.699Z,23.42
2022-12-17T09:26:21.948Z,23.25
2022-12-17T09:29:07.783Z,23.10
2022-12-17T09:31:53.944Z,23.85
2022-12-17T09:34:39.655Z,24.98
2022-12-17T09:37:25.431Z,25.52
2022-12-17T09:40:11.227Z,25.80
2022-12-17T09:43:24.813Z,24.33
2022-12-17T09:46:50.475Z,24.75
2022-12-17T09:49:46.674Z,24.08
2022-12-17T09:52:46.407Z,26.67
2022-12-17T09:56:03.295Z,26.60
2022-12-17T09:58:58.461Z,26.23
2022-12-17T10:01:52.952Z,24.85
2022-12-17T10:04:59.444Z,27.38
2022-12-17T10:07:53.769Z,24.05
2022-12-17T10:10:51.337Z,25.85
2022-12-17T10:13:41.299Z,25.92
2022-12-17T10:16:42.126Z,26.17
2022-12-17T10:19:44.312Z,23.20
2022-12-17T10:22:37.890Z,26.13
2022-12-17T10:25:40.648Z,27.75
2022-12-17T10:28:36.132Z,23.98
2022-12-17T10:31:36.447Z,24.98
2022-12-17T10:34:30.549Z,26.92
2022-12-17T10:37:16.315Z,24.83
2022-12-17T10:40:02.565Z,24.58
2022-12-17T10:42:58.801Z,29.75
2022-12-17T10:45:53.214Z,25.63
2022-12-17T10:48:45.296Z,23.33
2022-12-17T10:51:55.928Z,21.13
2022-12-17T10:54:49.610Z,23.60
2022-12-17T10:58:01.051Z,23.05
2022-12-17T11:00:58.100Z,27.33
2022-12-17T11:04:11.612Z,26.42
2022-12-17T11:07:12.203Z,24.95
2022-12-17T11:10:09.496Z,30.33
2022-12-17T11:13:07.856Z,26.70
2022-12-17T11:16:04.623Z,23.67
2022-12-17T11:19:33.637Z,27.98
2022-12-17T11:22:31.688Z,25.30
2022-12-17T11:26:08.319Z,26.52
2022-12-17T11:28:55.388Z,24.25
2022-12-17T11:32:17.880Z,24.63
2022-12-17T11:35:23.241Z,28.70
2022-12-17T11:39:19.096Z,27.65
2022-12-17T11:42:50.432Z,24.67
2022-12-17T11:45:58.496Z,26.88
2022-12-17T11:49:01.606Z,27.65
2022-12-17T11:52:20.579Z,29.35
2022-12-17T11:55:49.049Z,28.30
2022-12-17T11:58:59.547Z,25.67
2022-12-17T12:02:20.673Z,29.52
2022-12-17T12:05:34.218Z,32.28
2022-12-17T12:08:56.040Z,29.52
2022-12-17T12:12:10.009Z,30.20
2022-12-17T12:15:49.459Z,26.75
2022-12-17T12:18:53.216Z,28.52
2022-12-17T12:21:52.808Z,31.23
2022-12-17T12:25:14.021Z,27.88
2022-12-17T12:29:02.304Z,29.65
2022-12-17T12:32:07.233Z,23.15
2022-12-17T12:34:57.465Z,24.90
2022-12-17T12:37:43.566Z,31.17
2022-12-17T12:41:03.583Z,30.13
2022-12-17T12:43:54.515Z,31.92
2022-12-17T12:46:55.395Z,31.00
2022-12-17T12:50:35.001Z,34.05
2022-12-17T12:53:21.947Z,32.88
2022-12-17T12:56:07.896Z,30.20
2022-12-17T12:58:54.449Z,29.83
2022-12-17T13:01:55.929Z,33.40
2022-12-17T13:04:55.432Z,32.90
2022-12-17T13:07:29.940Z,35.55
2022-12-17T13:09:59.210Z,41.95
2022-12-17T13:12:47.105Z,32.67
2022-12-17T13:15:43.726Z,32.85
2022-12-17T13:18:36.659Z,31.65
2022-12-17T13:21:27.456Z,34.83
2022-12-17T13:23:54.497Z,40.40
2022-12-17T13:26:44.271Z,36.35
2022-12-17T13:29:28.890Z,35.67
2022-12-17T13:32:23.419Z,37.50
2022-12-17T13:35:15.365Z,35.17
2022-12-17T13:38:09.134Z,30.73
2022-12-17T13:40:48.364Z,34.08
2022-12-17T13:43:23.860Z,30.75
2022-12-17T13:45:52.759Z,33.55
2022-12-17T13:48:28.842Z,34.13
2022-12-17T13:51:05.757Z,37.58
2022-12-17T13:53:37.596Z,36.35
2022-12-17T13:56:04.872Z,32.63
2022-12-17T13:58:34.061Z,37.58
2022-12-17T14:01:19.518Z,34.42
2022-12-17T14:04:08.083Z,32.72
2022-12-17T14:06:38.491Z,32.72
2022-12-17T14:09:06.418Z,37.08
2022-12-17T14:11:55.709Z,31.45
2022-12-17T14:14:35.407Z,34.33
2022-12-17T14:17:03.045Z,32.50
2022-12-17T14:19:34.119Z,34.30
2022-12-17T14:22:02.475Z,33.17
2022-12-17T14:24:30.103Z,31.33
2022-12-17T14:27:00.260Z,37.80
2022-12-17T14:29:31.729Z,35.40
2022-12-17T14:32:03.536Z,29.88
2022-12-17T14:34:42.558Z,34.03
2022-12-17T14:37:21.608Z,30.00
2022-12-17T14:39:49.726Z,33.45
2022-12-17T14:42:29.093Z,35.10
2022-12-17T14:45:16.575Z,30.02
2022-12-17T14:48:08.185Z,28.88
2022-12-17T14:50:37.600Z,28.48
2022-12-17T14:53:27.480Z,33.00
2022-12-17T14:55:58.255Z,30.42
2022-12-17T14:58:26.972Z,29.42
2022-12-17T15:01:13.486Z,29.15
2022-12-17T15:03:46.173Z,32.40
2022-12-17T15:06:19.568Z,32.80
2022-12-17T15:08:50.394Z,34.95
2022-12-17T15:11:23.700Z,33.20
2022-12-17T15:13:56.131Z,28.13
2022-12-17T15:16:24.298Z,36.08
2022-12-17T15:18:51.323Z,32.65
2022-12-17T15:21:19.647Z,29.90
2022-12-17T15:23:47.988Z,29.58
2022-12-17T15:26:15.502Z,33.17
2022-12-17T15:28:44.105Z,32.83
2022-12-17T15:31:14.360Z,30.45
2022-12-17T15:33:42.745Z,32.30
2022-12-17T15:36:11.791Z,31.88
2022-12-17T15:38:39.760Z,34.92
2022-12-17T15:41:30.527Z,32.00
2022-12-17T15:43:57.524Z,35.13
2022-12-17T15:46:24.939Z,32.67
2022-12-17T15:48:51.992Z,32.55
2022-12-17T15:51:21.008Z,33.22
2022-12-17T15:53:49.193Z,32.00
2022-12-17T15:56:26.077Z,34.85
2022-12-17T15:58:53.258Z,35.05
2022-12-17T16:01:20.737Z,33.63
2022-12-17T16:03:47.954Z,36.47
2022-12-17T16:06:15.160Z,39.67
2022-12-17T16:08:42.385Z,31.05
2022-12-17T16:11:12.796Z,33.58
2022-12-17T16:13:40.221Z,30.25
2022-12-17T16:16:08.755Z,37.80
2022-12-17T16:18:38.679Z,30.73
2022-12-17T16:21:08.588Z,36.25
2022-12-17T16:23:36.170Z,32.85
2022-12-17T16:26:07.891Z,35.50
2022-12-17T16:28:36.563Z,32.97
2022-12-17T16:31:08.705Z,36.63
2022-12-17T16:33:39.027Z,39.45
2022-12-17T16:36:09.238Z,37.53
2022-12-17T16:38:45.427Z,33.85
2022-12-17T16:41:14.873Z,33.63
2022-12-17T16:43:42.776Z,32.05
2022-12-17T16:46:26.440Z,38.88
2022-12-17T16:48:55.584Z,34.50
2022-12-17T16:51:29.124Z,35.03
2022-12-17T16:53:58.600Z,37.72
2022-12-17T16:56:28.664Z,37.72
2022-12-17T16:58:56.509Z,37.47
2022-12-17T17:01:28.175Z,37.63
2022-12-17T17:03:56.698Z,37.25
2022-12-17T17:06:27.803Z,38.22
2022-12-17T17:08:59.006Z,39.75
2022-12-17T17:11:26.502Z,35.80
2022-12-17T17:13:55.063Z,32.72
2022-12-17T17:16:25.092Z,40.58
2022-12-17T17:18:54.623Z,34.65
2022-12-17T17:21:37.084Z,44.60
2022-12-17T17:24:20.076Z,38.80
2022-12-17T17:26:50.400Z,41.10
2022-12-17T17:29:18.090Z,44.92
2022-12-17T17:32:09.363Z,45.75
2022-12-17T17:34:32.960Z,40.85
2022-12-17T17:37:00.385Z,41.72
2022-12-17T17:39:27.398Z,37.33
2022-12-17T17:41:54.667Z,44.20
2022-12-17T17:44:21.661Z,39.08
2022-12-17T17:46:48.890Z,39.20
2022-12-17T17:49:16.234Z,39.05
2022-12-17T17:54:31.765Z,38.55
2022-12-17T17:56:59.125Z,44.05
2022-12-17T17:59:32.901Z,39.25
2022-12-17T18:02:03.004Z,38.08
2022-12-17T18:04:31.470Z,33.03
2022-12-17T18:09:46.472Z,39.38
2022-12-17T18:12:32.344Z,38.13
2022-12-17T18:15:19.279Z,37.90
2022-12-17T18:17:51.346Z,39.95
2022-12-17T18:20:18.659Z,36.72
2022-12-17T18:22:46.781Z,35.35
2022-12-17T18:25:16.115Z,36.20
2022-12-17T18:27:44.348Z,40.70
2022-12-17T18:30:12.906Z,37.42
2022-12-17T18:32:40.139Z,33.30
2022-12-17T18:35:08.119Z,34.83
2022-12-17T18:37:35.600Z,36.05
2022-12-17T18:40:03.864Z,31.27
2022-12-17T18:42:49.882Z,37.42
2022-12-17T18:45:17.168Z,33.47
2022-12-17T18:47:44.673Z,35.05
2022-12-17T18:50:13.180Z,31.20
2022-12-17T18:52:41.642Z,35.67
2022-12-17T18:55:08.765Z,35.38
2022-12-17T18:57:35.977Z,27.95
2022-12-17T19:00:03.908Z,35.40
2022-12-17T19:02:31.186Z,36.08
2022-12-17T19:04:58.402Z,32.80
2022-12-17T19:07:25.585Z,38.35
2022-12-17T19:09:52.644Z,33.08
2022-12-17T19:12:19.920Z,37.92
2022-12-17T19:14:47.907Z,33.95
2022-12-17T19:17:15.109Z,36.90
2022-12-17T19:19:42.311Z,35.08
2022-12-17T19:22:09.507Z,37.08
2022-12-17T19:24:36.557Z,34.70
2022-12-17T19:27:04.063Z,29.42
2022-12-17T19:29:31.288Z,36.53
2022-12-17T19:31:58.679Z,33.45
2022-12-17T19:34:25.759Z,33.10
2022-12-17T19:36:53.098Z,35.97
2022-12-17T19:39:20.445Z,31.80
2022-12-17T19:41:47.762Z,33.15
2022-12-17T19:44:17.431Z,27.70
2022-12-17T19:46:45.015Z,31.95
2022-12-17T19:49:15.436Z,29.63
2022-12-17T19:51:44.480Z,30.25
2022-12-17T19:54:15.000Z,27.92
2022-12-17T19:56:45.177Z,32.17
2022-12-17T19:59:13.881Z,29.45
2022-12-17T20:01:47.925Z,31.75
2022-12-17T20:04:16.506Z,32.80
2022-12-17T20:06:45.181Z,29.80
2022-12-17T20:09:14.083Z,31.85
2022-12-17T20:11:41.491Z,35.35
2022-12-17T20:14:15.559Z,33.10
2022-12-17T20:16:47.040Z,36.15
2022-12-17T20:19:21.795Z,28.58
2022-12-17T20:21:51.536Z,31.80
2022-12-17T20:24:19.229Z,36.53
2022-12-17T20:26:50.474Z,30.77
2022-12-17T20:29:19.910Z,28.92
2022-12-17T20:31:49.826Z,28.88
2022-12-17T20:34:19.641Z,30.67
2022-12-17T20:36:46.831Z,33.47
2022-12-17T20:39:14.017Z,31.95
2022-12-17T20:41:41.843Z,32.88
2022-12-17T20:44:14.356Z,27.50
2022-12-17T20:46:43.580Z,30.63
2022-12-17T20:49:14.724Z,31.90
2022-12-17T20:51:43.116Z,30.73
2022-12-17T20:54:10.714Z,32.42
2022-12-17T20:56:40.039Z,30.40
2022-12-17T20:59:13.047Z,27.50
2022-12-17T21:01:41.024Z,25.02
2022-12-17T21:04:08.143Z,28.92
2022-12-17T21:06:47.886Z,27.85
2022-12-17T21:09:18.485Z,33.05
2022-12-17T21:11:46.015Z,27.58
2022-12-17T21:14:17.341Z,31.67
2022-12-17T21:16:46.305Z,24.38
2022-12-17T21:19:18.160Z,29.90
2022-12-17T21:21:45.696Z,25.80
2022-12-17T21:24:12.839Z,25.13
2022-12-17T21:26:43.833Z,26.83
2022-12-17T21:29:11.574Z,24.50
2022-12-17T21:31:45.847Z,25.17
2022-12-17T21:34:21.654Z,29.52
2022-12-17T21:36:50.685Z,22.48
2022-12-17T21:39:19.777Z,28.60
2022-12-17T21:42:07.200Z,24.55
2022-12-17T21:44:35.045Z,30.20
2022-12-17T21:47:02.446Z,27.13
2022-12-17T21:49:29.580Z,23.08
2022-12-17T21:51:59.150Z,25.77
2022-12-17T21:54:26.481Z,29.35
2022-12-17T21:56:53.886Z,27.10
2022-12-17T21:59:20.936Z,30.08
2022-12-17T22:01:48.987Z,28.52
2022-12-17T22:04:16.355Z,27.67
2022-12-17T22:06:47.759Z,25.60
2022-12-17T22:09:37.041Z,26.73
2022-12-17T22:12:27.884Z,23.02
2022-12-17T22:14:55.271Z,22.88
2022-12-17T22:17:23.237Z,20.98
2022-12-17T22:19:50.231Z,19.90
2022-12-17T22:22:17.440Z,22.60
2022-12-17T22:24:44.571Z,20.63
2022-12-17T22:27:11.970Z,24.35
2022-12-17T22:29:57.771Z,20.05
2022-12-17T22:32:43.418Z,22.42
2022-12-17T22:36:17.825Z,20.08
2022-12-17T22:41:00.614Z,22.80
2022-12-17T22:44:32.292Z,20.25
2022-12-17T22:44:42.468Z,19.85
2022-12-17T22:46:22.369Z,19.45
2022-12-17T22:48:49.618Z,20.45
2022-12-17T22:51:27.487Z,22.02
2022-12-17T22:53:56.688Z,20.20
2022-12-17T22:57:00.711Z,21.35
2022-12-17T22:59:19.593Z,22.92
2022-12-17T23:01:47.077Z,18.55
2022-12-17T23:04:16.137Z,16.33
2022-12-17T23:06:45.661Z,18.67
2022-12-17T23:09:18.172Z,19.83
2022-12-17T23:11:47.776Z,20.25
2022-12-17T23:14:16.221Z,18.23
2022-12-17T23:16:44.651Z,20.10
2022-12-17T23:19:13.795Z,18.92
2022-12-17T23:21:41.282Z,18.35
2022-12-17T23:24:09.233Z,19.55
2022-12-17T23:26:37.885Z,20.75
2022-12-17T23:29:19.119Z,18.73
2022-12-17T23:31:47.250Z,19.52
2022-12-17T23:34:15.443Z,17.75
2022-12-17T23:36:42.800Z,20.13
2022-12-17T23:39:10.228Z,15.70
2022-12-17T23:41:37.257Z,18.92
2022-12-17T23:44:05.253Z,20.23
2022-12-17T23:46:32.351Z,18.08
2022-12-17T23:48:59.740Z,18.42
2022-12-17T23:51:28.051Z,16.08
2022-12-17T23:53:55.516Z,16.75
2022-12-17T23:56:26.283Z,16.73
2022-12-17T23:58:59.952Z,18.52
